Terminal Aerodrome Forecast
Issued by NWS Cleveland, OH

Home | Current Version | Previous Version | Graphics & Text | Print | Product List | Glossary On
Versions: 1 2 3 4 5 6 7 8 9 10 11 12 13 14 15 16
136
FTUS41 KCLE 022342
TAFMFD
TAF
KMFD 022342Z 0300/0324 14015G25KT P6SM VCSH BKN050 OVC100
      TEMPO 0302/0305 3SM -TSRA BKN018 OVC025CB
     FM030500 19020G32KT 4SM -SHRA BKN015 OVC025
      TEMPO 0305/0309 3SM -TSRA BKN008 OVC015CB
     FM030900 20020G32KT 5SM -RA SCT008 OVC012
     FM031600 21020G30KT P6SM SCT015 OVC028
     FM032000 23015G25KT P6SM SCT025 OVC035=

USA.gov is the U.S. government's official web portal to all federal, state and local government web resources and services.